Time;durP1;ratioP1;P1;durP2;ratioP2;P2;SDS_P1;SDS_P2;PMS_P1;PMS_P2;Temp;Humidity;BMP_temperature;BMP_pressure;BME280_temperature;BME280_humidity;BME280_pressure;Samples;Min_cycle;Max_cycle;Signal;HPM_P1;HPM_P2
2022/01/12 00:02:25;;;;;;;66.10;56.40;;;;;;;-145.93;100.00;59239.47;4907088;29;20035;-80
2022/01/12 00:04:50;;;;;;;58.57;52.03;;;;;;;-145.93;100.00;59239.47;4911033;29;20036;-80
2022/01/12 00:07:18;;;;;;;62.57;54.97;;;;;;;-145.93;100.00;59239.47;4894000;29;20040;-81
2022/01/12 00:09:43;;;;;;;60.67;54.13;;;;;;;-145.93;100.00;59239.47;4915961;29;20020;-80
2022/01/12 00:12:09;;;;;;;59.50;53.30;;;;;;;-145.93;100.00;59239.47;4899141;29;20031;-80
2022/01/12 00:14:35;;;;;;;60.10;53.70;;;;;;;-145.93;100.00;59239.47;4914164;29;20039;-80
2022/01/12 00:17:00;;;;;;;66.53;55.90;;;;;;;-145.93;100.00;59239.47;4913800;29;20051;-80
2022/01/12 00:19:27;;;;;;;60.90;54.47;;;;;;;-145.93;100.00;59239.47;4900471;29;20035;-80
2022/01/12 00:21:55;;;;;;;61.25;54.72;;;;;;;-145.93;100.00;59239.47;4900861;29;20056;-81
2022/01/12 00:24:40;;;;;;;59.35;53.25;;;;;;;-145.93;100.00;59239.47;4919633;29;20117;-80
2022/01/12 00:35:17;;;;;;;60.40;54.00;;;;;;;-145.93;100.00;59239.47;4926031;29;20035;-81
2022/01/12 00:37:43;;;;;;;64.40;56.23;;;;;;;-145.93;100.00;59239.47;4925583;29;20514;-80
2022/01/12 00:40:09;;;;;;;60.27;53.83;;;;;;;-145.93;100.00;59239.47;4913046;29;20027;-81
2022/01/12 00:42:34;;;;;;;66.18;56.10;;;;;;;-145.93;100.00;59239.47;4896020;29;20039;-80
2022/01/12 00:45:01;;;;;;;63.10;56.37;;;;;;;-145.93;100.00;59239.47;4895140;29;20446;-80
2022/01/12 00:47:27;;;;;;;72.20;58.28;;;;;;;-145.93;100.00;59239.47;4912851;29;20401;-80
2022/01/12 00:49:55;;;;;;;70.30;57.63;;;;;;;-145.93;100.00;59239.47;4916631;29;20024;-81
2022/01/12 00:52:21;;;;;;;68.22;58.38;;;;;;;-145.93;100.00;59239.47;4900491;29;20119;-80
2022/01/12 00:54:46;;;;;;;64.03;57.03;;;;;;;-145.93;100.00;59239.47;4917245;29;20055;-80
2022/01/12 00:57:11;;;;;;;71.13;57.47;;;;;;;-145.93;100.00;59239.47;4914526;29;20028;-80
2022/01/12 00:59:37;;;;;;;70.30;57.43;;;;;;;-145.93;100.00;59239.47;4899298;29;20047;-81
2022/01/12 01:02:05;;;;;;;66.63;57.50;;;;;;;-145.93;100.00;59239.47;4914105;29;20549;-81
2022/01/12 01:04:30;;;;;;;65.18;57.15;;;;;;;-145.93;100.00;59239.47;4912055;29;20044;-80
2022/01/12 01:06:56;;;;;;;83.10;60.73;;;;;;;-145.93;100.00;59239.47;4910827;29;20043;-80
2022/01/12 01:09:23;;;;;;;67.40;58.73;;;;;;;-145.93;100.00;59239.47;4910632;29;20032;-80
2022/01/12 01:11:51;;;;;;;65.00;57.97;;;;;;;-145.93;100.00;59239.47;4893830;29;20021;-81
2022/01/12 01:14:21;;;;;;;66.50;58.22;;;;;;;-145.93;100.00;59239.47;4908322;29;20031;-80
2022/01/12 01:27:50;;;;;;;66.82;59.17;;;;;;;-145.93;100.00;59239.47;4928221;29;20046;-82
2022/01/12 01:30:16;;;;;;;69.30;59.13;;;;;;;-145.93;100.00;59239.47;4908595;29;20577;-81
2022/01/12 01:32:43;;;;;;;68.43;60.50;;;;;;;-145.93;100.00;59239.47;4889506;29;20020;-80
2022/01/12 01:35:09;;;;;;;66.57;59.08;;;;;;;-145.93;100.00;59239.47;4891114;29;20071;-81
2022/01/12 01:37:34;;;;;;;71.13;59.08;;;;;;;-145.93;100.00;59239.47;4890367;29;20159;-81
2022/01/12 01:39:59;;;;;;;72.00;59.30;;;;;;;-145.93;100.00;59239.47;4897434;29;20032;-81
2022/01/12 01:42:39;;;;;;;71.63;59.03;;;;;;;-145.93;100.00;59239.47;4893960;29;20034;-81
2022/01/12 01:53:19;;;;;;;67.38;59.50;;;;;;;-145.93;100.00;59239.47;4924372;29;20030;-81
2022/01/12 01:55:44;;;;;;;69.88;59.00;;;;;;;-145.93;100.00;59239.47;4934637;29;20104;-81
2022/01/12 01:58:10;;;;;;;65.13;57.90;;;;;;;-145.93;100.00;59239.47;4922107;29;20036;-81
2022/01/12 02:00:35;;;;;;;69.93;58.70;;;;;;;-145.93;100.00;59239.47;4923480;29;20114;-80
2022/01/12 02:03:01;;;;;;;65.70;58.23;;;;;;;-145.93;100.00;59239.47;4921724;29;20020;-81
2022/01/12 02:05:27;;;;;;;65.47;58.10;;;;;;;-145.93;100.00;59239.47;4921209;29;20028;-79
2022/01/12 02:07:52;;;;;;;68.28;58.80;;;;;;;-145.93;100.00;59239.47;4928443;23;20067;-84
2022/01/12 02:10:18;;;;;;;70.70;59.60;;;;;;;-145.93;100.00;59239.47;4945549;29;20023;-85
2022/01/12 02:12:43;;;;;;;73.20;60.57;;;;;;;-145.93;100.00;59239.47;4929756;29;20078;-82
2022/01/12 02:15:15;;;;;;;75.17;59.70;;;;;;;-145.93;100.00;59239.47;4929918;29;20050;-86
2022/01/12 02:17:53;;;;;;;75.75;62.60;;;;;;;-145.93;100.00;59239.47;4937010;28;20034;-84
2022/01/12 02:37:14;;;;;;;76.80;64.65;;;;;;;-145.93;100.00;59239.47;4959765;28;20054;-83
2022/01/12 02:39:57;;;;;;;79.60;63.20;;;;;;;-145.93;100.00;59239.47;4958379;28;20011;-82
2022/01/12 02:42:25;;;;;;;80.65;64.28;;;;;;;-145.93;100.00;59239.47;4945596;28;20031;-85
2022/01/12 02:50:43;;;;;;;81.47;65.25;;;;;;;-145.93;100.00;59239.47;4966445;28;20046;-82
2022/01/12 02:55:53;;;;;;;86.90;63.97;;;;;;;-145.93;100.00;59239.47;4964325;28;20046;-82
2022/01/12 02:58:19;;;;;;;95.37;67.87;;;;;;;-145.93;100.00;59239.47;4970729;28;20016;-80
2022/01/12 03:03:14;;;;;;;79.03;63.00;;;;;;;-145.93;100.00;59239.47;4958759;29;20039;-83
2022/01/12 03:05:57;;;;;;;85.70;64.78;;;;;;;-145.93;100.00;59239.47;4937908;29;20029;-83
2022/01/12 03:08:24;;;;;;;97.20;65.13;;;;;;;-145.93;100.00;59239.47;4931449;29;20055;-84
2022/01/12 03:10:49;;;;;;;91.32;65.70;;;;;;;-145.93;100.00;59239.47;4942498;29;20023;-84
2022/01/12 03:13:15;;;;;;;87.47;64.50;;;;;;;-145.93;100.00;59239.47;4933475;29;20031;-85
2022/01/12 03:15:41;;;;;;;91.17;65.57;;;;;;;-145.93;100.00;59239.47;4950331;29;20031;-84
2022/01/12 03:18:07;;;;;;;90.57;67.88;;;;;;;-145.93;100.00;59239.47;4939050;29;20083;-85
2022/01/12 03:20:33;;;;;;;82.97;66.03;;;;;;;-145.93;100.00;59239.47;4927541;29;20027;-84
2022/01/12 03:22:58;;;;;;;95.78;67.35;;;;;;;-145.93;100.00;59239.47;4937042;29;20030;-82
2022/01/12 03:25:23;;;;;;;92.03;66.93;;;;;;;-145.93;100.00;59239.47;4960932;28;20015;-82
2022/01/12 03:27:50;;;;;;;92.13;68.33;;;;;;;-145.93;100.00;59239.47;4973903;28;20027;-79
2022/01/12 03:30:15;;;;;;;88.45;66.53;;;;;;;-145.93;100.00;59239.47;4962154;28;20066;-81
2022/01/12 03:32:46;;;;;;;99.17;68.27;;;;;;;-145.93;100.00;59239.47;4949952;28;20023;-81
2022/01/12 03:35:24;;;;;;;85.47;68.63;;;;;;;-145.93;100.00;59239.47;4946958;29;20039;-83
2022/01/12 03:38:20;;;;;;;86.28;65.95;;;;;;;-145.93;100.00;59239.47;4945905;28;20016;-81
2022/01/12 03:40:41;;;;;;;87.82;66.70;;;;;;;-145.93;100.00;59239.47;4982538;28;20039;-81
2022/01/12 03:43:07;;;;;;;90.00;67.00;;;;;;;-145.93;100.00;59239.47;4964844;28;20026;-81
2022/01/12 03:45:32;;;;;;;86.53;63.83;;;;;;;-145.93;100.00;59239.47;4964998;28;20087;-81
2022/01/12 03:47:58;;;;;;;111.20;69.90;;;;;;;-145.93;100.00;59239.47;4957305;29;20051;-81
2022/01/12 03:50:23;;;;;;;96.77;67.53;;;;;;;-145.93;100.00;59239.47;4954629;29;20031;-83
2022/01/12 03:52:48;;;;;;;106.70;69.80;;;;;;;-145.93;100.00;59239.47;4948484;29;20024;-81
2022/01/12 03:55:14;;;;;;;106.30;68.27;;;;;;;-145.93;100.00;59239.47;4961003;28;20020;-81
2022/01/12 03:57:39;;;;;;;95.80;71.00;;;;;;;-145.93;100.00;59239.47;4942680;29;20059;-81
2022/01/12 04:00:05;;;;;;;89.60;67.90;;;;;;;-145.93;100.00;59239.47;4951625;29;20027;-82
2022/01/12 04:02:33;;;;;;;97.38;69.10;;;;;;;-145.93;100.00;59239.47;4957096;29;20031;-83
2022/01/12 04:05:10;;;;;;;88.60;66.85;;;;;;;-145.93;100.00;59239.47;4956555;29;20098;-84
2022/01/12 04:10:20;;;;;;;94.15;67.50;;;;;;;-145.93;100.00;59239.47;4959820;29;20050;-84
2022/01/12 04:12:46;;;;;;;94.33;68.23;;;;;;;-145.93;100.00;59239.47;4953347;29;20027;-85
2022/01/12 04:15:11;;;;;;;84.13;65.60;;;;;;;-145.93;100.00;59239.47;4934572;29;20698;-84
2022/01/12 04:17:36;;;;;;;93.67;66.50;;;;;;;-145.93;100.00;59239.47;4953449;29;20075;-84
2022/01/12 04:20:03;;;;;;;87.27;67.53;;;;;;;-145.93;100.00;59239.47;4962786;28;20023;-82
2022/01/12 04:25:12;;;;;;;78.50;63.60;;;;;;;-145.93;100.00;59239.47;4987438;28;19992;-81
2022/01/12 04:27:39;;;;;;;93.33;68.73;;;;;;;-145.93;100.00;59239.47;4957268;28;20023;-80
2022/01/12 04:30:04;;;;;;;;;;;;;;;-145.93;100.00;59239.47;4969044;28;20014;-82
2022/01/12 04:32:30;;;;;;;92.93;66.03;;;;;;;-145.93;100.00;59239.47;4968727;28;19965;-81
2022/01/12 04:34:55;;;;;;;100.17;67.67;;;;;;;-145.93;100.00;59239.47;4953578;29;20012;-81
2022/01/12 04:37:21;;;;;;;96.87;67.77;;;;;;;-145.93;100.00;59239.47;4954474;29;20349;-80
2022/01/12 04:39:46;;;;;;;91.90;67.37;;;;;;;-145.93;100.00;59239.47;4973150;28;20031;-80
2022/01/12 04:42:11;;;;;;;85.43;68.37;;;;;;;-145.93;100.00;59239.47;4972557;28;20023;-82
2022/01/12 04:44:43;;;;;;;88.63;67.17;;;;;;;-145.93;100.00;59239.47;4968416;28;20018;-81
2022/01/12 04:47:15;;;;;;;103.18;71.25;;;;;;;-145.93;100.00;59239.47;4962535;28;20440;-82
2022/01/12 04:52:12;;;;;;;89.70;65.88;;;;;;;-145.93;100.00;59239.47;4965085;28;20066;-85
2022/01/12 04:54:37;;;;;;;77.57;63.23;;;;;;;-145.93;100.00;59239.47;4957662;28;20098;-85
2022/01/12 04:57:03;;;;;;;96.33;66.90;;;;;;;-145.93;100.00;59239.47;4933197;29;20056;-83
2022/01/12 04:59:29;;;;;;;86.10;65.97;;;;;;;-145.93;100.00;59239.47;4936998;29;20437;-85
2022/01/12 05:01:59;;;;;;;87.07;67.18;;;;;;;-145.93;100.00;59239.47;4931413;28;20039;-84
2022/01/12 05:09:51;;;;;;;97.07;68.38;;;;;;;-145.93;100.00;59239.47;4948812;28;20035;-83
2022/01/12 05:15:09;;;;;;;94.28;67.60;;;;;;;-145.93;100.00;59239.47;4949120;29;20030;-83
2022/01/12 05:17:35;;;;;;;97.00;69.20;;;;;;;-145.93;100.00;59239.47;4930863;29;20027;-81
2022/01/12 05:20:01;;;;;;;89.53;65.50;;;;;;;-145.93;100.00;59239.47;4943539;28;20029;-82
2022/01/12 05:22:26;;;;;;;100.17;67.97;;;;;;;-145.93;100.00;59239.47;4939520;28;20026;-84
2022/01/12 05:24:52;;;;;;;99.90;67.17;;;;;;;-145.93;100.00;59239.47;4946470;28;20039;-83
2022/01/12 05:27:17;;;;;;;92.63;69.10;;;;;;;-145.93;100.00;59239.47;4950345;29;20493;-84
2022/01/12 05:29:43;;;;;;;121.90;74.70;;;;;;;-145.93;100.00;59239.47;4948521;28;20032;-84
2022/01/12 05:32:10;;;;;;;104.77;68.67;;;;;;;-145.93;100.00;59239.47;4955428;28;20516;-84
2022/01/12 05:34:37;;;;;;;108.93;73.95;;;;;;;-145.93;100.00;59239.47;4930827;29;20019;-83
2022/01/12 05:37:02;;;;;;;96.50;66.13;;;;;;;-145.93;100.00;59239.47;4947719;29;20429;-84
2022/01/12 05:39:28;;;;;;;109.03;67.73;;;;;;;-145.93;100.00;59239.47;4941178;29;20024;-84
2022/01/12 05:41:53;;;;;;;98.03;66.33;;;;;;;-145.93;100.00;59239.47;4937973;28;20026;-83
2022/01/12 05:44:18;;;;;;;107.43;67.57;;;;;;;-145.93;100.00;59239.47;4942659;29;20069;-84
2022/01/12 05:46:45;;;;;;;102.47;67.33;;;;;;;-145.93;100.00;59239.47;4953446;29;20090;-85
2022/01/12 05:51:54;;;;;;;101.38;67.22;;;;;;;-145.93;100.00;59239.47;4964720;28;20042;-86
2022/01/12 05:54:19;;;;;;;93.93;64.97;;;;;;;-145.93;100.00;59239.47;4943653;29;20019;-85
2022/01/12 05:56:45;;;;;;;103.83;66.63;;;;;;;-145.93;100.00;59239.47;4947298;29;20027;-84
2022/01/12 05:59:10;;;;;;;93.83;68.60;;;;;;;-145.93;100.00;59239.47;4938697;28;20014;-83
2022/01/12 06:01:35;;;;;;;91.97;63.83;;;;;;;-145.93;100.00;59239.47;4931964;29;20086;-84
2022/01/12 06:04:01;;;;;;;90.47;68.13;;;;;;;-145.93;100.00;59239.47;4946456;29;20029;-84
2022/01/12 06:06:26;;;;;;;90.87;66.00;;;;;;;-145.93;100.00;59239.47;4949059;29;20122;-84
2022/01/12 06:08:51;;;;;;;97.27;63.80;;;;;;;-145.93;100.00;59239.47;4937247;28;20026;-85
2022/01/12 06:11:17;;;;;;;89.33;64.73;;;;;;;-145.93;100.00;59239.47;4943866;29;20033;-85
2022/01/12 06:13:42;;;;;;;91.10;65.60;;;;;;;-145.93;100.00;59239.47;4948105;29;20015;-85
2022/01/12 06:16:07;;;;;;;91.63;64.97;;;;;;;-145.93;100.00;59239.47;4928767;29;20030;-87
2022/01/12 06:18:33;;;;;;;84.77;62.67;;;;;;;-145.93;100.00;59239.47;4936064;28;20018;-87
2022/01/12 06:20:58;;;;;;;85.33;64.37;;;;;;;-145.93;100.00;59239.47;4927853;29;20099;-88
2022/01/12 06:23:23;;;;;;;93.57;64.57;;;;;;;-145.93;100.00;59239.47;4947463;29;20035;-85
2022/01/12 06:25:49;;;;;;;82.87;62.20;;;;;;;-145.93;100.00;59239.47;4930396;29;20049;-86
2022/01/12 06:28:36;;;;;;;82.90;62.93;;;;;;;-145.93;100.00;59239.47;4946831;29;20477;-85
2022/01/12 06:31:10;;;;;;;82.90;63.90;;;;;;;-145.93;100.00;59239.47;4930316;29;20413;-86
2022/01/12 06:33:36;;;;;;;87.82;64.45;;;;;;;-145.93;100.00;59239.47;4947835;28;20165;-85
2022/01/12 06:36:01;;;;;;;82.40;65.18;;;;;;;-145.93;100.00;59239.47;4954672;28;20027;-86
2022/01/12 06:38:27;;;;;;;86.47;64.27;;;;;;;-145.93;100.00;59239.47;4951758;29;20505;-87
2022/01/12 06:40:52;;;;;;;85.37;64.77;;;;;;;-145.93;100.00;59239.47;4943285;29;20186;-86
2022/01/12 06:43:18;;;;;;;85.87;62.93;;;;;;;-145.93;100.00;59239.47;4952867;28;20151;-86
2022/01/12 06:45:43;;;;;;;95.13;64.63;;;;;;;-145.93;100.00;59239.47;4978608;28;20041;-88
2022/01/12 06:48:08;;;;;;;90.70;63.33;;;;;;;-145.93;100.00;59239.47;4939148;28;20015;-86
2022/01/12 06:50:34;;;;;;;89.90;65.20;;;;;;;-145.93;100.00;59239.47;4971369;28;20045;-86
2022/01/12 06:52:59;;;;;;;91.13;63.53;;;;;;;-145.93;100.00;59239.47;4957836;28;20027;-86
2022/01/12 06:55:24;;;;;;;84.90;62.40;;;;;;;-145.93;100.00;59239.47;4951559;28;20026;-85
2022/01/12 06:57:50;;;;;;;90.30;63.17;;;;;;;-145.93;100.00;59239.47;4962927;28;20038;-86
2022/01/12 07:00:15;;;;;;;94.90;63.17;;;;;;;-145.93;100.00;59239.47;4954671;28;20103;-86
2022/01/12 07:02:41;;;;;;;83.17;62.10;;;;;;;-145.93;100.00;59239.47;4930497;29;20023;-85
2022/01/12 07:05:07;;;;;;;84.40;61.23;;;;;;;-145.93;100.00;59239.47;4930754;29;20023;-85
2022/01/12 07:07:32;;;;;;;82.55;60.85;;;;;;;-145.93;100.00;59239.47;4942697;28;20049;-86
2022/01/12 07:09:57;;;;;;;79.57;59.83;;;;;;;-145.93;100.00;59239.47;4952951;28;20023;-86
2022/01/12 07:12:22;;;;;;;81.37;59.73;;;;;;;-145.93;100.00;59239.47;4950870;28;20035;-86
2022/01/12 07:14:48;;;;;;;88.10;61.17;;;;;;;-145.93;100.00;59239.47;4963275;28;20030;-85
2022/01/12 07:17:13;;;;;;;80.80;58.77;;;;;;;-145.93;100.00;59239.47;4955972;29;20019;-86
2022/01/12 07:19:39;;;;;;;77.83;59.17;;;;;;;-145.93;100.00;59239.47;4969599;28;20026;-86
2022/01/12 07:22:04;;;;;;;83.00;60.47;;;;;;;-145.93;100.00;59239.47;4922893;29;20031;-85
2022/01/12 07:24:29;;;;;;;83.97;59.03;;;;;;;-145.93;100.00;59239.47;4932859;29;20037;-86
2022/01/12 07:26:55;;;;;;;80.13;59.47;;;;;;;-145.93;100.00;59239.47;4946783;29;20027;-86
2022/01/12 07:29:20;;;;;;;83.03;60.07;;;;;;;-145.93;100.00;59239.47;4948474;28;20400;-86
2022/01/12 07:31:48;;;;;;;73.03;58.17;;;;;;;-145.93;100.00;59239.47;4938858;28;20026;-85
2022/01/12 07:34:14;;;;;;;79.28;59.10;;;;;;;-145.93;100.00;59239.47;4947548;29;20548;-87
2022/01/12 07:36:41;;;;;;;82.32;61.90;;;;;;;-145.93;100.00;59239.47;4943933;29;20138;-86
2022/01/12 07:39:06;;;;;;;88.55;60.70;;;;;;;-145.93;100.00;59239.47;4934981;29;20036;-86
2022/01/12 07:41:31;;;;;;;79.27;59.40;;;;;;;-145.93;100.00;59239.47;4948333;29;20027;-85
2022/01/12 07:43:57;;;;;;;78.40;57.73;;;;;;;-145.93;100.00;59239.47;4950707;28;20510;-85
2022/01/12 07:46:22;;;;;;;81.80;60.00;;;;;;;-145.93;100.00;59239.47;4950610;28;20126;-87
2022/01/12 07:48:47;;;;;;;78.20;58.97;;;;;;;-145.93;100.00;59239.47;4942955;29;20026;-86
2022/01/12 07:51:14;;;;;;;86.37;59.13;;;;;;;-145.93;100.00;59239.47;4947097;29;20033;-87
2022/01/12 07:53:39;;;;;;;78.40;59.47;;;;;;;-145.93;100.00;59239.47;4931068;29;20027;-85
2022/01/12 07:56:04;;;;;;;81.93;60.77;;;;;;;-145.93;100.00;59239.47;4947410;28;20046;-86
2022/01/12 07:58:30;;;;;;;82.03;58.23;;;;;;;-145.93;100.00;59239.47;4944186;29;20107;-85
2022/01/12 08:00:55;;;;;;;83.53;58.60;;;;;;;-145.93;100.00;59239.47;4940581;29;20031;-86
2022/01/12 08:03:22;;;;;;;77.10;57.60;;;;;;;-145.93;100.00;59239.47;4944551;28;20034;-85
2022/01/12 08:05:47;;;;;;;80.80;58.42;;;;;;;-145.93;100.00;59239.47;4951952;28;20033;-86
2022/01/12 08:08:14;;;;;;;75.97;58.47;;;;;;;-145.93;100.00;59239.47;4949319;23;20115;-80
2022/01/12 08:10:40;;;;;;;87.80;59.33;;;;;;;-145.93;100.00;59239.47;4946814;28;20015;-82
2022/01/12 08:13:05;;;;;;;75.60;58.47;;;;;;;-145.93;100.00;59239.47;4946956;29;20045;-80
2022/01/12 08:15:30;;;;;;;85.03;60.27;;;;;;;-145.93;100.00;59239.47;4957554;29;20033;-81
2022/01/12 08:17:56;;;;;;;83.07;58.33;;;;;;;-145.93;100.00;59239.47;4932475;29;20118;-84
2022/01/12 08:20:28;;;;;;;82.63;59.93;;;;;;;-145.93;100.00;59239.47;4927443;29;20367;-80
2022/01/12 08:22:56;;;;;;;84.25;59.92;;;;;;;-145.93;100.00;59239.47;4921578;29;20031;-81
2022/01/12 08:25:22;;;;;;;77.63;60.20;;;;;;;-145.93;100.00;59239.47;4916774;29;20012;-82
2022/01/12 08:27:47;;;;;;;88.82;59.72;;;;;;;-145.93;100.00;59239.47;4912010;29;20026;-80
2022/01/12 08:30:19;;;;;;;85.27;60.20;;;;;;;-145.93;100.00;59239.47;4920376;29;20130;-80
2022/01/12 08:32:46;;;;;;;83.90;59.70;;;;;;;-145.93;100.00;59239.47;4920850;29;20054;-81
2022/01/12 08:35:12;;;;;;;84.72;59.28;;;;;;;-145.93;100.00;59239.47;4920215;29;20039;-79
2022/01/12 08:37:37;;;;;;;89.57;59.57;;;;;;;-145.93;100.00;59239.47;4924760;29;20206;-80
2022/01/12 08:40:03;;;;;;;82.00;58.13;;;;;;;-145.93;100.00;59239.47;4947646;29;20320;-81
2022/01/12 08:42:29;;;;;;;;;;;;;;;-145.93;100.00;59239.47;4933434;29;20020;-80
2022/01/12 08:44:59;;;;;;;82.78;59.08;;;;;;;-145.93;100.00;59239.47;4927117;29;19950;-80
2022/01/12 08:47:24;;;;;;;90.50;59.58;;;;;;;-145.93;100.00;59239.47;4941432;29;20042;-82
2022/01/12 08:49:49;;;;;;;76.93;59.37;;;;;;;-145.93;100.00;59239.47;4922569;29;20027;-81
2022/01/12 08:52:15;;;;;;;78.60;57.33;;;;;;;-145.93;100.00;59239.47;4924951;29;20055;-81
2022/01/12 08:54:40;;;;;;;68.27;56.47;;;;;;;-145.93;100.00;59239.47;4913996;29;20541;-81
2022/01/12 08:57:11;;;;;;;83.83;59.50;;;;;;;-145.93;100.00;59239.47;4913091;29;20043;-82
2022/01/12 08:59:36;;;;;;;72.45;57.63;;;;;;;-145.93;100.00;59239.47;4914731;29;20104;-83
2022/01/12 09:02:02;;;;;;;73.87;56.70;;;;;;;-145.93;100.00;59239.47;4940325;29;20039;-82
2022/01/12 09:04:27;;;;;;;75.63;57.30;;;;;;;-145.93;100.00;59239.47;4912395;29;20083;-81
2022/01/12 09:06:57;;;;;;;76.60;56.13;;;;;;;-145.93;100.00;59239.47;4933851;29;20031;-82
2022/01/12 09:09:22;;;;;;;73.00;57.83;;;;;;;-145.93;100.00;59239.47;4916160;29;20497;-83
2022/01/12 09:11:48;;;;;;;80.53;58.40;;;;;;;-145.93;100.00;59239.47;4946630;29;20019;-83
2022/01/12 09:14:15;;;;;;;69.53;55.73;;;;;;;-145.93;100.00;59239.47;4939845;29;20031;-81
2022/01/12 09:16:41;;;;;;;69.45;56.70;;;;;;;-145.93;100.00;59239.47;4922763;29;20413;-83
2022/01/12 09:19:09;;;;;;;68.63;56.60;;;;;;;-145.93;100.00;59239.47;4934458;29;20122;-80
2022/01/12 09:21:34;;;;;;;73.00;57.40;;;;;;;-145.93;100.00;59239.47;4929764;29;20034;-83
2022/01/12 09:24:00;;;;;;;69.90;57.30;;;;;;;-145.93;100.00;59239.47;4932809;29;20024;-82
2022/01/12 09:26:25;;;;;;;74.38;57.72;;;;;;;-145.93;100.00;59239.47;4917228;29;20027;-82
2022/01/12 09:28:51;;;;;;;77.80;55.93;;;;;;;-145.93;100.00;59239.47;4923042;29;20120;-83
2022/01/12 09:31:16;;;;;;;81.47;57.77;;;;;;;-145.93;100.00;59239.47;4924948;29;20032;-82
2022/01/12 09:33:41;;;;;;;73.37;57.07;;;;;;;-145.93;100.00;59239.47;4929371;29;20031;-82
2022/01/12 09:36:07;;;;;;;78.30;57.13;;;;;;;-145.93;100.00;59239.47;4928957;29;20597;-82
2022/01/12 09:38:33;;;;;;;68.50;56.97;;;;;;;-145.93;100.00;59239.47;4912917;29;20023;-82
2022/01/12 09:40:58;;;;;;;74.75;58.67;;;;;;;-145.93;100.00;59239.47;4916170;29;20648;-83
2022/01/12 09:43:30;;;;;;;70.90;56.70;;;;;;;-145.93;100.00;59239.47;4934470;29;20039;-82
2022/01/12 09:45:56;;;;;;;90.75;58.22;;;;;;;-145.93;100.00;59239.47;4916168;29;20079;-82
2022/01/12 09:48:23;;;;;;;;;;;;;;;-145.93;100.00;59239.47;4913509;29;20042;-82
2022/01/12 09:50:53;;;;;;;70.78;55.15;;;;;;;-145.93;100.00;59239.47;4936935;29;20422;-82
2022/01/12 09:53:20;;;;;;;69.22;57.05;;;;;;;-145.93;100.00;59239.47;4911869;29;20486;-83
2022/01/12 09:55:46;;;;;;;75.15;57.80;;;;;;;-145.93;100.00;59239.47;4910666;29;20040;-80
2022/01/12 09:58:14;;;;;;;68.00;57.15;;;;;;;-145.93;100.00;59239.47;4912217;29;20034;-81
2022/01/12 10:00:40;;;;;;;75.47;58.60;;;;;;;-145.93;100.00;59239.47;4936672;29;20019;-83
2022/01/12 10:03:12;;;;;;;79.57;58.40;;;;;;;-145.93;100.00;59239.47;4914956;29;20023;-82
2022/01/12 10:05:38;;;;;;;78.60;56.65;;;;;;;-145.93;100.00;59239.47;4911760;29;20506;-82
2022/01/12 10:08:09;;;;;;;72.93;56.55;;;;;;;-145.93;100.00;59239.47;4925425;29;20028;-81
2022/01/12 10:10:38;;;;;;;75.35;56.17;;;;;;;-145.93;100.00;59239.47;4947514;29;20034;-80
2022/01/12 10:13:03;;;;;;;79.45;57.33;;;;;;;-145.93;100.00;59239.47;4930168;29;20019;-81
2022/01/12 10:15:29;;;;;;;69.57;56.13;;;;;;;-145.93;100.00;59239.47;4925180;29;20031;-82
2022/01/12 10:18:00;;;;;;;73.03;56.13;;;;;;;-145.93;100.00;59239.47;4916701;29;20061;-82
2022/01/12 10:20:26;;;;;;;68.95;56.00;;;;;;;-145.93;100.00;59239.47;4919583;29;20111;-82
2022/01/12 10:22:57;;;;;;;80.63;58.60;;;;;;;-145.93;100.00;59239.47;4926562;29;20664;-81
2022/01/12 10:25:24;;;;;;;68.20;55.25;;;;;;;-145.93;100.00;59239.47;4946077;29;20031;-82
2022/01/12 10:27:49;;;;;;;78.30;58.53;;;;;;;-145.93;100.00;59239.47;4914370;29;20030;-83
2022/01/12 10:30:19;;;;;;;73.97;56.67;;;;;;;-145.93;100.00;59239.47;4915716;29;20036;-81
2022/01/12 10:32:44;;;;;;;78.13;58.70;;;;;;;-145.93;100.00;59239.47;4932031;29;20024;-82
2022/01/12 10:35:09;;;;;;;72.70;56.57;;;;;;;-145.93;100.00;59239.47;4909845;29;20052;-82
2022/01/12 10:37:35;;;;;;;73.67;57.53;;;;;;;-145.93;100.00;59239.47;4923960;29;20035;-83
2022/01/12 10:40:00;;;;;;;64.17;55.27;;;;;;;-145.93;100.00;59239.47;4909894;29;20049;-82
2022/01/12 10:42:27;;;;;;;65.73;55.13;;;;;;;-145.93;100.00;59239.47;4932753;29;20106;-81
2022/01/12 10:44:55;;;;;;;71.93;56.53;;;;;;;-145.93;100.00;59239.47;4908442;29;20078;-81
2022/01/12 10:47:29;;;;;;;67.75;56.42;;;;;;;-145.93;100.00;59239.47;4918353;29;20029;-82
2022/01/12 10:49:54;;;;;;;72.72;56.20;;;;;;;-145.93;100.00;59239.47;4930455;29;20031;-81
2022/01/12 10:52:23;;;;;;;67.97;55.70;;;;;;;-145.93;100.00;59239.47;4947959;29;20398;-83
2022/01/12 10:54:52;;;;;;;70.82;55.42;;;;;;;-145.93;100.00;59239.47;4924732;29;20132;-82
2022/01/12 10:57:22;;;;;;;73.40;56.95;;;;;;;-145.93;100.00;59239.47;4909796;29;20075;-82
2022/01/12 11:00:00;;;;;;;69.53;56.25;;;;;;;-145.93;100.00;59239.47;4928614;29;20050;-82
2022/01/12 11:02:27;;;;;;;70.38;54.95;;;;;;;-145.93;100.00;59239.47;4916506;29;20032;-81
2022/01/12 11:04:56;;;;;;;68.15;56.10;;;;;;;-145.93;100.00;59239.47;4926276;29;20509;-80
2022/01/12 11:07:23;;;;;;;67.20;56.42;;;;;;;-145.93;100.00;59239.47;4929780;29;20035;-81
2022/01/12 11:09:50;;;;;;;75.63;55.08;;;;;;;-145.93;100.00;59239.47;4928207;29;20071;-80
2022/01/12 11:12:15;;;;;;;67.35;53.58;;;;;;;-145.93;100.00;59239.47;4927848;29;20027;-82
2022/01/12 11:14:41;;;;;;;66.47;54.70;;;;;;;-145.93;100.00;59239.47;4916366;29;20032;-82
2022/01/12 11:17:06;;;;;;;62.30;53.78;;;;;;;-145.93;100.00;59239.47;4931714;29;20036;-83
2022/01/12 11:19:32;;;;;;;67.30;55.07;;;;;;;-145.93;100.00;59239.47;4911122;29;20370;-82
2022/01/12 11:22:21;;;;;;;67.30;54.50;;;;;;;-145.93;100.00;59239.47;4935778;29;20028;-81
2022/01/12 11:24:47;;;;;;;70.68;55.75;;;;;;;-145.93;100.00;59239.47;4910735;29;20063;-83
2022/01/12 11:27:19;;;;;;;71.97;54.20;;;;;;;-145.93;100.00;59239.47;4911042;29;20058;-81
2022/01/12 11:29:45;;;;;;;63.95;54.15;;;;;;;-145.93;100.00;59239.47;4928147;29;20086;-81
2022/01/12 11:32:13;;;;;;;72.13;54.90;;;;;;;-145.93;100.00;59239.47;4919821;29;20029;-80
2022/01/12 11:34:40;;;;;;;62.88;53.97;;;;;;;-145.93;100.00;59239.47;4929793;29;20031;-82
2022/01/12 11:37:13;;;;;;;71.55;54.63;;;;;;;-145.93;100.00;59239.47;4937372;29;20023;-82
2022/01/12 11:39:39;;;;;;;67.57;54.17;;;;;;;-145.93;100.00;59239.47;4930584;29;20062;-82
2022/01/12 11:42:04;;;;;;;63.28;54.03;;;;;;;-145.93;100.00;59239.47;4916095;29;20067;-82
2022/01/12 11:44:38;;;;;;;74.00;53.93;;;;;;;-145.93;100.00;59239.47;4930310;29;20404;-81
2022/01/12 11:47:04;;;;;;;64.13;53.45;;;;;;;-145.93;100.00;59239.47;4919826;29;20024;-80
2022/01/12 11:49:36;;;;;;;69.13;54.03;;;;;;;-145.93;100.00;59239.47;4925764;29;20543;-82
2022/01/12 11:52:29;;;;;;;63.20;54.00;;;;;;;-145.93;100.00;59239.47;4948130;29;20172;-82
2022/01/12 11:55:09;;;;;;;66.55;53.60;;;;;;;-145.93;100.00;59239.47;4941372;29;20034;-83
2022/01/12 11:57:38;;;;;;;73.60;56.40;;;;;;;-145.93;100.00;59239.47;4928628;29;20027;-81
2022/01/12 12:00:12;;;;;;;66.63;55.28;;;;;;;-145.93;100.00;59239.47;4922327;29;20119;-82
2022/01/12 12:02:42;;;;;;;65.10;54.15;;;;;;;-145.93;100.00;59239.47;4924988;29;20035;-82
2022/01/12 12:05:14;;;;;;;66.53;54.78;;;;;;;-145.93;100.00;59239.47;4927591;29;20023;-83
2022/01/12 12:07:49;;;;;;;70.65;53.80;;;;;;;-145.93;100.00;59239.47;4926713;29;20078;-80
2022/01/12 12:10:20;;;;;;;72.05;54.15;;;;;;;-145.93;100.00;59239.47;4919917;29;20035;-82